Time;durP1;ratioP1;P1;durP2;ratioP2;P2;SDS_P1;SDS_P2;PMS_P1;PMS_P2;Temp;Humidity;BMP_temperature;BMP_pressure;BME280_temperature;BME280_humidity;BME280_pressure;Samples;Min_cycle;Max_cycle;Signal;HPM_P1;HPM_P2
2023/02/14 00:00:17;;;;;;;32.08;18.27;;;4.70;99.90;;;;;;5001927;28;20476;-55
2023/02/14 00:02:43;;;;;;;28.95;17.55;;;4.70;99.90;;;;;;5002599;28;20038;-55
2023/02/14 00:05:09;;;;;;;31.92;17.83;;;4.70;99.90;;;;;;5002877;28;20112;-57
2023/02/14 00:07:35;;;;;;;26.77;17.25;;;4.70;99.90;;;;;;5001852;28;20492;-57
2023/02/14 00:10:00;;;;;;;27.80;16.70;;;4.70;99.90;;;;;;5003067;28;20120;-54
2023/02/14 00:12:26;;;;;;;26.58;16.95;;;4.70;99.90;;;;;;5002764;28;20038;-56
2023/02/14 00:17:36;;;;;;;24.45;15.48;;;4.70;99.90;;;;;;5002969;28;20037;-57
2023/02/14 00:20:01;;;;;;;28.83;17.08;;;4.70;99.90;;;;;;5002202;28;20105;-55
2023/02/14 00:22:27;;;;;;;27.23;16.25;;;4.70;99.90;;;;;;5003649;28;20034;-57
2023/02/14 00:24:53;;;;;;;26.50;17.23;;;4.70;99.90;;;;;;5001194;28;20445;-56
2023/02/14 00:27:18;;;;;;;28.25;17.83;;;4.60;99.90;;;;;;5001768;28;20026;-55
2023/02/14 00:29:44;;;;;;;29.55;18.40;;;4.70;99.90;;;;;;5003258;28;20268;-56
2023/02/14 00:32:09;;;;;;;30.50;18.00;;;4.70;99.90;;;;;;5002761;28;20396;-58
2023/02/14 00:34:35;;;;;;;27.58;16.90;;;4.60;99.90;;;;;;5004228;28;20030;-58
2023/02/14 00:37:01;;;;;;;30.33;17.27;;;4.70;99.90;;;;;;5000400;28;20026;-55
2023/02/14 00:39:27;;;;;;;29.40;17.60;;;4.60;99.90;;;;;;4999469;28;20600;-58
2023/02/14 00:41:53;;;;;;;28.20;17.00;;;4.60;99.90;;;;;;5001580;28;20105;-56
2023/02/14 00:44:18;;;;;;;24.73;15.07;;;4.60;99.90;;;;;;5001927;28;20385;-56
2023/02/14 00:46:44;;;;;;;26.73;17.05;;;4.60;99.90;;;;;;5002030;28;20346;-56
2023/02/14 00:49:10;;;;;;;27.17;17.13;;;4.60;99.90;;;;;;5000303;28;20036;-56
2023/02/14 00:51:35;;;;;;;30.05;17.90;;;4.60;99.90;;;;;;5000945;28;20034;-56
2023/02/14 00:54:02;;;;;;;30.70;17.17;;;4.60;99.90;;;;;;5000281;28;20030;-57
2023/02/14 00:56:28;;;;;;;32.95;19.08;;;4.60;99.90;;;;;;5000919;28;20496;-55
2023/02/14 00:58:53;;;;;;;31.05;18.70;;;4.60;99.90;;;;;;5001497;28;20022;-54
2023/02/14 01:01:19;;;;;;;34.60;19.67;;;4.60;99.90;;;;;;5002842;28;20718;-56
2023/02/14 01:03:45;;;;;;;32.47;19.38;;;4.60;99.90;;;;;;4999012;28;20583;-55
2023/02/14 01:06:11;;;;;;;32.20;20.08;;;4.60;99.90;;;;;;5001462;28;20034;-56
2023/02/14 01:08:37;;;;;;;35.88;22.08;;;4.60;99.90;;;;;;5001928;28;20475;-55
2023/02/14 01:11:10;;;;;;;34.45;20.50;;;4.60;99.90;;;;;;5000974;28;20021;-57
2023/02/14 01:13:36;;;;;;;28.90;17.48;;;4.60;99.90;;;;;;5000450;28;20025;-58
2023/02/14 01:16:07;;;;;;;31.20;17.83;;;4.60;99.90;;;;;;5002119;28;20026;-55
2023/02/14 01:18:34;;;;;;;27.02;18.20;;;4.60;99.90;;;;;;4985069;28;20045;-55
2023/02/14 01:21:12;;;;;;;26.50;16.55;;;4.60;99.90;;;;;;5000611;28;20384;-55
2023/02/14 01:23:37;;;;;;;26.15;16.08;;;4.60;99.90;;;;;;5001607;28;20034;-54
2023/02/14 01:26:05;;;;;;;27.45;16.45;;;4.60;99.90;;;;;;5002104;28;20479;-53
2023/02/14 01:28:31;;;;;;;27.80;16.92;;;4.50;99.90;;;;;;5002026;28;20026;-56
2023/02/14 01:30:56;;;;;;;31.45;18.30;;;4.50;99.90;;;;;;4999714;28;20021;-57
2023/02/14 01:33:22;;;;;;;31.05;20.17;;;4.50;99.90;;;;;;5000766;28;20104;-57
2023/02/14 01:35:47;;;;;;;27.77;17.65;;;4.50;99.90;;;;;;4999808;28;20028;-56
2023/02/14 01:38:13;;;;;;;31.98;18.38;;;4.50;99.90;;;;;;5000898;28;20098;-55
2023/02/14 01:40:44;;;;;;;27.90;16.73;;;4.50;99.90;;;;;;5000965;28;20444;-56
2023/02/14 01:43:16;;;;;;;29.38;17.55;;;4.50;99.90;;;;;;4999974;28;20113;-54
2023/02/14 01:45:42;;;;;;;27.17;17.90;;;4.50;99.90;;;;;;5000680;28;20354;-56
2023/02/14 01:48:08;;;;;;;35.97;19.17;;;4.50;99.90;;;;;;5001066;28;20084;-55
2023/02/14 01:50:38;;;;;;;28.83;16.52;;;4.50;99.90;;;;;;5001565;28;20042;-56
2023/02/14 01:53:11;;;;;;;31.05;18.60;;;4.50;99.90;;;;;;5001546;28;20100;-55
2023/02/14 01:55:46;;;;;;;31.77;17.95;;;4.50;99.90;;;;;;4998710;28;20027;-57
2023/02/14 01:58:20;;;;;;;30.45;18.42;;;4.50;99.90;;;;;;4999318;28;20026;-56
2023/02/14 02:00:55;;;;;;;26.50;16.52;;;4.50;99.90;;;;;;4998391;28;20026;-56
2023/02/14 02:03:31;;;;;;;28.43;17.33;;;4.50;99.90;;;;;;4998848;28;20463;-56
2023/02/14 02:06:20;;;;;;;29.65;16.67;;;4.50;99.90;;;;;;5001001;28;20022;-55
2023/02/14 02:09:01;;;;;;;28.35;17.33;;;4.50;99.90;;;;;;5001536;28;20121;-57
2023/02/14 02:11:27;;;;;;;27.92;16.80;;;4.40;99.90;;;;;;5000622;28;20084;-56
2023/02/14 02:13:52;;;;;;;28.42;17.63;;;4.40;99.90;;;;;;4998886;28;20034;-56
2023/02/14 02:16:24;;;;;;;26.77;16.65;;;4.40;99.90;;;;;;4999971;28;20033;-56
2023/02/14 02:19:20;;;;;;;33.38;19.83;;;4.40;99.90;;;;;;5000136;28;20033;-55
2023/02/14 02:22:33;;;;;;;33.47;21.23;;;4.40;99.90;;;;;;4998887;28;20042;-53
2023/02/14 02:25:32;;;;;;;34.38;20.33;;;4.40;99.90;;;;;;4939810;29;20079;-56
2023/02/14 02:28:13;;;;;;;35.22;19.65;;;4.40;99.90;;;;;;5000917;28;20108;-55
2023/02/14 02:31:05;;;;;;;33.72;19.15;;;4.40;99.90;;;;;;4998654;28;20038;-55
2023/02/14 02:33:58;;;;;;;37.58;20.67;;;4.40;99.90;;;;;;4973073;28;20067;-55
2023/02/14 02:36:30;;;;;;;34.17;19.42;;;4.40;99.90;;;;;;5000140;28;20029;-55
2023/02/14 02:39:11;;;;;;;33.25;20.50;;;4.30;99.90;;;;;;4998572;28;20041;-56
2023/02/14 02:41:57;;;;;;;30.30;18.80;;;4.30;99.90;;;;;;5000249;28;20038;-56
2023/02/14 02:44:47;;;;;;;30.27;17.52;;;4.40;99.90;;;;;;5004360;28;20030;-56
2023/02/14 02:47:36;;;;;;;30.50;17.35;;;4.30;99.90;;;;;;4999410;28;20101;-54
2023/02/14 02:53:26;;;;;;;36.72;18.38;;;4.30;99.90;;;;;;5000004;28;20400;-57
2023/02/14 02:59:19;;;;;;;33.53;19.08;;;4.30;99.90;;;;;;4998782;28;20079;-55
2023/02/14 03:01:55;;;;;;;32.90;18.50;;;4.30;99.90;;;;;;4998817;28;20045;-55
2023/02/14 03:07:51;;;;;;;35.67;19.25;;;4.20;99.90;;;;;;4999955;28;20423;-57
2023/02/14 03:09:56;;;;;;;33.40;18.83;;;4.20;99.90;;;;;;4988068;28;20038;-55
2023/02/14 03:13:08;;;;;;;32.67;19.45;;;4.20;99.90;;;;;;5000106;28;20042;-56
2023/02/14 03:15:51;;;;;;;39.58;22.00;;;4.20;99.90;;;;;;4998725;28;20058;-56
2023/02/14 03:18:50;;;;;;;35.10;20.80;;;4.20;99.90;;;;;;4997764;28;20029;-55
2023/02/14 03:21:43;;;;;;;37.55;20.98;;;4.20;99.90;;;;;;4998374;28;20228;-58
2023/02/14 03:24:29;;;;;;;30.85;18.90;;;4.20;99.90;;;;;;4999552;28;20036;-58
2023/02/14 03:27:29;;;;;;;37.33;20.73;;;4.20;99.90;;;;;;4998603;28;20026;-56
2023/02/14 03:29:54;;;;;;;34.95;19.30;;;4.20;99.90;;;;;;4998286;28;20152;-56
2023/02/14 03:32:45;;;;;;;34.00;19.25;;;4.10;99.90;;;;;;4999403;28;20030;-58
2023/02/14 03:35:11;;;;;;;35.50;20.50;;;4.10;99.90;;;;;;4999342;28;20022;-56
2023/02/14 03:37:53;;;;;;;33.60;19.27;;;4.10;99.90;;;;;;4998555;28;20620;-56
2023/02/14 03:40:26;;;;;;;28.63;18.23;;;4.10;99.90;;;;;;4998512;28;20018;-57
2023/02/14 03:42:56;;;;;;;27.60;17.55;;;4.10;99.90;;;;;;4999254;28;20025;-55
2023/02/14 03:45:27;;;;;;;35.15;19.20;;;4.10;99.90;;;;;;4998245;28;20484;-53
2023/02/14 03:47:56;;;;;;;35.72;20.23;;;4.10;99.90;;;;;;4999393;28;20035;-54
2023/02/14 03:50:21;;;;;;;30.80;19.20;;;4.10;99.90;;;;;;4999388;28;20064;-54
2023/02/14 03:52:50;;;;;;;29.52;19.88;;;4.10;99.90;;;;;;4999716;28;20468;-57
2023/02/14 03:55:23;;;;;;;29.88;17.08;;;4.10;99.90;;;;;;4999770;28;20015;-55
2023/02/14 03:58:09;;;;;;;31.35;20.13;;;4.00;99.90;;;;;;5000634;28;20046;-57
2023/02/14 04:00:38;;;;;;;34.03;18.92;;;4.10;99.90;;;;;;4997805;28;20120;-55
2023/02/14 04:03:12;;;;;;;35.25;19.95;;;4.00;99.90;;;;;;4997726;28;20025;-57
2023/02/14 04:05:42;;;;;;;32.17;19.40;;;4.00;99.90;;;;;;4999434;28;20441;-56
2023/02/14 04:08:09;;;;;;;35.80;19.98;;;4.10;99.90;;;;;;4999037;28;20028;-57
2023/02/14 04:10:35;;;;;;;33.78;19.08;;;4.10;99.90;;;;;;4997965;28;20554;-56
2023/02/14 04:13:00;;;;;;;31.35;17.58;;;4.00;99.90;;;;;;4998402;28;20113;-58
2023/02/14 04:15:26;;;;;;;32.40;18.60;;;4.00;99.90;;;;;;4997391;28;20029;-56
2023/02/14 04:20:36;;;;;;;30.55;18.80;;;4.00;99.90;;;;;;4999309;28;20316;-54
2023/02/14 04:23:02;;;;;;;29.25;17.15;;;4.00;99.90;;;;;;4997396;28;20038;-55
2023/02/14 04:25:27;;;;;;;33.30;19.40;;;4.00;99.90;;;;;;5000012;28;20037;-54
2023/02/14 04:27:53;;;;;;;34.67;19.42;;;4.00;99.90;;;;;;4998757;28;20029;-56
2023/02/14 04:30:20;;;;;;;34.03;20.85;;;4.00;99.90;;;;;;4999173;28;20384;-55
2023/02/14 04:32:46;;;;;;;33.83;19.08;;;3.90;99.90;;;;;;4999732;28;20028;-53
2023/02/14 04:35:11;;;;;;;34.80;19.95;;;4.00;99.90;;;;;;4998804;28;20023;-54
2023/02/14 04:37:37;;;;;;;37.30;20.50;;;4.00;99.90;;;;;;5000116;28;20026;-56
2023/02/14 04:40:04;;;;;;;33.65;20.08;;;3.90;99.90;;;;;;5002038;28;20113;-55
2023/02/14 04:42:29;;;;;;;30.17;19.27;;;4.00;99.90;;;;;;5001763;28;20026;-54
2023/02/14 04:44:55;;;;;;;31.80;18.55;;;3.90;99.90;;;;;;5002340;28;20030;-53
2023/02/14 04:47:21;;;;;;;33.30;19.15;;;4.00;99.90;;;;;;5002655;28;20037;-57
2023/02/14 04:49:46;;;;;;;36.05;20.02;;;4.00;99.90;;;;;;5001163;28;20026;-54
2023/02/14 04:52:12;;;;;;;32.58;19.85;;;4.00;99.90;;;;;;5001750;28;20033;-56
2023/02/14 04:54:37;;;;;;;36.05;19.60;;;3.90;99.90;;;;;;5002684;28;20080;-52
2023/02/14 04:57:03;;;;;;;32.03;19.75;;;4.00;99.90;;;;;;5002008;28;20112;-55
2023/02/14 04:59:29;;;;;;;36.75;21.55;;;3.90;99.90;;;;;;5000777;28;20397;-55
2023/02/14 05:01:54;;;;;;;33.95;20.67;;;4.00;99.90;;;;;;5001416;28;20299;-53
2023/02/14 05:04:20;;;;;;;35.85;21.60;;;4.00;99.90;;;;;;5000758;28;20026;-57
2023/02/14 05:06:45;;;;;;;34.45;21.15;;;3.90;99.90;;;;;;5000105;28;20033;-56
2023/02/14 05:09:11;;;;;;;33.28;20.33;;;4.00;99.90;;;;;;5001678;28;20489;-57
2023/02/14 05:11:37;;;;;;;37.35;21.42;;;3.90;99.90;;;;;;5000148;28;20489;-55
2023/02/14 05:14:03;;;;;;;34.15;19.67;;;3.90;99.90;;;;;;5001513;28;20113;-54
2023/02/14 05:16:29;;;;;;;33.47;19.58;;;3.90;99.90;;;;;;5000702;28;20169;-54
2023/02/14 05:18:55;;;;;;;43.00;22.23;;;4.00;99.90;;;;;;5000055;28;20027;-54
2023/02/14 05:21:20;;;;;;;35.67;21.25;;;3.90;99.90;;;;;;5002301;28;20117;-53
2023/02/14 05:23:46;;;;;;;42.78;20.83;;;3.90;99.90;;;;;;5016742;23;20030;-82
2023/02/14 05:26:14;;;;;;;47.25;22.88;;;3.90;99.90;;;;;;5011571;28;20042;-82
2023/02/14 05:28:41;;;;;;;42.03;22.67;;;3.90;99.90;;;;;;5014824;28;20106;-82
2023/02/14 05:31:07;;;;;;;42.03;21.23;;;3.90;99.90;;;;;;5014373;28;20041;-82
2023/02/14 05:33:33;;;;;;;34.92;20.02;;;3.90;99.90;;;;;;5012850;28;20022;-82
2023/02/14 05:35:59;;;;;;;35.22;21.33;;;3.90;99.90;;;;;;5010596;28;20034;-81
2023/02/14 05:38:25;;;;;;;37.60;21.92;;;3.90;99.90;;;;;;5013055;28;20038;-83
2023/02/14 05:40:51;;;;;;;31.52;20.13;;;3.90;99.90;;;;;;5012397;28;20054;-82
2023/02/14 05:43:16;;;;;;;32.83;19.80;;;3.90;99.90;;;;;;5012420;28;20253;-83
2023/02/14 05:45:42;;;;;;;33.97;21.08;;;3.90;99.90;;;;;;5010857;28;20033;-81
2023/02/14 05:48:08;;;;;;;35.35;20.42;;;3.90;99.90;;;;;;5009755;28;20036;-82
2023/02/14 05:50:33;;;;;;;35.10;20.85;;;3.90;99.90;;;;;;5015931;28;20054;-82
2023/02/14 05:53:00;;;;;;;34.85;20.25;;;3.90;99.90;;;;;;5019063;28;20041;-82
2023/02/14 05:55:25;;;;;;;33.45;20.27;;;3.90;99.90;;;;;;5012986;28;20022;-83
2023/02/14 05:57:51;;;;;;;41.00;22.52;;;3.90;99.90;;;;;;5014730;28;20014;-83
2023/02/14 06:00:17;;;;;;;36.03;21.20;;;3.80;99.90;;;;;;5013093;28;20104;-82
2023/02/14 06:02:43;;;;;;;35.00;20.92;;;3.80;99.90;;;;;;5014195;28;20031;-82
2023/02/14 06:05:11;;;;;;;36.08;21.52;;;3.90;99.90;;;;;;5012771;28;20113;-82
2023/02/14 06:07:37;;;;;;;33.80;19.55;;;3.90;99.90;;;;;;5019183;28;20030;-82
2023/02/14 06:10:03;;;;;;;37.13;20.73;;;3.90;99.90;;;;;;5014256;28;20056;-82
2023/02/14 06:12:28;;;;;;;32.15;18.48;;;3.90;99.90;;;;;;5015034;28;20030;-83
2023/02/14 06:14:54;;;;;;;33.25;20.98;;;3.90;99.90;;;;;;5018049;28;20022;-84
2023/02/14 06:17:19;;;;;;;38.20;21.70;;;3.90;99.90;;;;;;5023124;28;20050;-84
2023/02/14 06:19:45;;;;;;;38.78;21.27;;;3.80;99.90;;;;;;5020396;28;20108;-84
2023/02/14 06:22:11;;;;;;;36.78;20.90;;;3.80;99.90;;;;;;5015243;28;20041;-84
2023/02/14 06:24:36;;;;;;;34.38;20.30;;;3.80;99.90;;;;;;5014828;28;20043;-84
2023/02/14 06:27:02;;;;;;;34.35;19.63;;;3.80;99.90;;;;;;5016998;28;20396;-84
2023/02/14 06:29:27;;;;;;;42.72;21.75;;;3.80;99.90;;;;;;5014346;28;20036;-84
2023/02/14 06:31:53;;;;;;;39.65;21.83;;;3.80;99.90;;;;;;5015622;28;20041;-83
2023/02/14 06:34:19;;;;;;;33.95;20.17;;;3.80;99.90;;;;;;5012674;28;20089;-83
2023/02/14 06:36:44;;;;;;;39.78;21.33;;;3.90;99.90;;;;;;5012132;28;20120;-83
2023/02/14 06:39:10;;;;;;;34.90;21.33;;;3.80;99.90;;;;;;5015563;28;20114;-82
2023/02/14 06:41:36;;;;;;;40.53;21.90;;;3.90;99.90;;;;;;5016570;28;20031;-83
2023/02/14 06:44:01;;;;;;;36.97;20.15;;;3.90;99.90;;;;;;5015643;28;20026;-84
2023/02/14 06:46:27;;;;;;;40.90;21.83;;;3.90;99.90;;;;;;5012305;28;20085;-83
2023/02/14 06:48:53;;;;;;;34.90;20.77;;;3.90;99.90;;;;;;5015986;28;20037;-83
2023/02/14 06:51:18;;;;;;;40.40;21.40;;;3.90;99.90;;;;;;5010764;28;20026;-83
2023/02/14 06:53:44;;;;;;;39.60;21.92;;;3.80;99.90;;;;;;5011676;28;20022;-84
2023/02/14 06:56:10;;;;;;;34.88;20.63;;;3.90;99.90;;;;;;5011864;28;20018;-83
2023/02/14 06:58:35;;;;;;;36.15;20.75;;;3.90;99.90;;;;;;5017105;28;20037;-84
2023/02/14 07:01:01;;;;;;;41.63;22.02;;;3.90;99.90;;;;;;5007282;28;20037;-83
2023/02/14 07:03:26;;;;;;;39.70;21.13;;;3.90;99.90;;;;;;5009801;28;20117;-84
2023/02/14 07:05:52;;;;;;;35.08;21.02;;;3.90;99.90;;;;;;5014896;28;20026;-83
2023/02/14 07:08:19;;;;;;;33.22;19.48;;;4.00;99.90;;;;;;5015384;28;20061;-83
2023/02/14 07:10:45;;;;;;;38.58;20.98;;;3.90;99.90;;;;;;5013226;28;20034;-83
2023/02/14 07:13:12;;;;;;;37.75;21.25;;;3.90;99.90;;;;;;5009625;28;20046;-84
2023/02/14 07:15:38;;;;;;;41.30;23.17;;;3.90;99.90;;;;;;5013610;28;20096;-83
2023/02/14 07:18:04;;;;;;;40.90;21.35;;;3.90;99.90;;;;;;5010550;28;20026;-83
2023/02/14 07:20:29;;;;;;;41.65;22.83;;;3.90;99.90;;;;;;5011272;28;20026;-83
2023/02/14 07:22:55;;;;;;;35.05;20.02;;;4.00;99.90;;;;;;5011564;28;20067;-82
2023/02/14 07:25:20;;;;;;;41.30;22.70;;;3.90;99.90;;;;;;5013752;28;20576;-83
2023/02/14 07:27:46;;;;;;;38.95;20.75;;;4.00;99.90;;;;;;5012324;28;20536;-83
2023/02/14 07:30:12;;;;;;;41.47;22.70;;;4.00;99.90;;;;;;5011215;28;20034;-83
2023/02/14 07:32:39;;;;;;;36.60;20.42;;;4.00;99.90;;;;;;5008685;28;20089;-83
2023/02/14 07:35:06;;;;;;;36.95;22.60;;;4.00;99.90;;;;;;5010625;28;20018;-84
2023/02/14 07:37:33;;;;;;;41.42;22.70;;;4.10;99.90;;;;;;5012425;28;20034;-83
2023/02/14 07:39:58;;;;;;;37.35;22.08;;;4.10;99.90;;;;;;5009833;28;20029;-83
2023/02/14 07:42:24;;;;;;;35.33;20.17;;;4.10;99.90;;;;;;5008798;28;20030;-83
2023/02/14 07:44:49;;;;;;;39.13;22.95;;;4.10;99.90;;;;;;5008801;28;20048;-84
2023/02/14 07:47:15;;;;;;;36.63;20.35;;;4.10;99.90;;;;;;5010005;28;20458;-83
2023/02/14 07:49:41;;;;;;;39.40;20.63;;;4.10;99.90;;;;;;5012843;28;20042;-83
2023/02/14 07:52:07;;;;;;;34.67;19.13;;;4.20;99.90;;;;;;5013394;28;20028;-83
2023/02/14 07:54:33;;;;;;;38.70;21.75;;;4.20;99.90;;;;;;5012359;28;20050;-83
2023/02/14 07:56:59;;;;;;;33.90;20.30;;;4.20;99.90;;;;;;5012088;28;20033;-82
2023/02/14 07:59:24;;;;;;;34.50;20.42;;;4.20;99.90;;;;;;5007464;28;20113;-84
2023/02/14 08:01:50;;;;;;;34.80;20.67;;;4.20;99.90;;;;;;5010103;28;20115;-82
2023/02/14 08:04:16;;;;;;;36.78;21.20;;;4.30;99.90;;;;;;5015001;28;20029;-83
2023/02/14 08:06:42;;;;;;;35.53;20.90;;;4.30;99.90;;;;;;5007459;28;20026;-83
2023/02/14 08:09:09;;;;;;;39.33;20.23;;;4.30;99.90;;;;;;5010831;28;20032;-82
2023/02/14 08:14:20;;;;;;;37.33;20.90;;;4.40;99.90;;;;;;5016835;28;20483;-84
2023/02/14 08:16:45;;;;;;;35.53;20.67;;;4.40;99.90;;;;;;5013099;28;20108;-84
2023/02/14 08:19:11;;;;;;;35.95;20.65;;;4.50;99.90;;;;;;5004496;28;20500;-82
2023/02/14 08:21:36;;;;;;;33.72;20.50;;;4.50;99.90;;;;;;5007549;28;20033;-83
2023/02/14 08:24:02;;;;;;;34.65;20.17;;;4.50;99.90;;;;;;5006447;28;20045;-82
2023/02/14 08:26:28;;;;;;;35.05;20.85;;;4.60;99.90;;;;;;5008224;28;20049;-83
2023/02/14 08:28:56;;;;;;;33.95;20.25;;;4.60;99.90;;;;;;5009999;28;20021;-82
2023/02/14 08:33:49;;;;;;;36.13;19.85;;;4.70;99.90;;;;;;5180968;23;20064;-61
2023/02/14 08:36:16;;;;;;;34.97;19.98;;;4.70;99.90;;;;;;5002237;28;20021;-59
2023/02/14 08:38:44;;;;;;;33.17;19.75;;;4.80;99.90;;;;;;5001737;28;20014;-59
2023/02/14 08:41:10;;;;;;;33.88;20.88;;;4.90;99.90;;;;;;5002679;28;20042;-59
2023/02/14 08:43:36;;;;;;;30.90;19.90;;;4.90;99.90;;;;;;5002524;28;20305;-59
2023/02/14 08:46:01;;;;;;;35.55;19.85;;;5.00;99.90;;;;;;5001610;28;20026;-58
2023/02/14 08:48:27;;;;;;;31.00;18.75;;;5.00;99.90;;;;;;5002586;28;20034;-60
2023/02/14 08:50:52;;;;;;;36.45;21.10;;;5.00;99.90;;;;;;5002464;28;20031;-60
2023/02/14 08:53:18;;;;;;;32.00;19.15;;;5.10;99.90;;;;;;5002004;28;20459;-60
2023/02/14 08:55:43;;;;;;;36.30;20.73;;;5.20;99.90;;;;;;5000697;28;20014;-56
2023/02/14 08:58:09;;;;;;;34.08;20.50;;;5.20;99.90;;;;;;5001143;28;20022;-58
2023/02/14 09:00:35;;;;;;;35.88;19.58;;;5.30;99.90;;;;;;5000527;28;20110;-60
2023/02/14 09:03:01;;;;;;;33.58;19.75;;;5.40;99.90;;;;;;5002261;28;20596;-59
2023/02/14 09:05:26;;;;;;;35.72;19.10;;;5.50;99.90;;;;;;5002217;28;20083;-61
2023/02/14 09:07:55;;;;;;;29.77;18.42;;;5.70;99.90;;;;;;5002176;28;20480;-56
2023/02/14 09:10:21;;;;;;;29.85;18.58;;;5.80;99.90;;;;;;5001246;28;20052;-61
2023/02/14 09:12:46;;;;;;;31.80;19.27;;;5.90;99.90;;;;;;5001844;28;20061;-60
2023/02/14 09:15:12;;;;;;;34.67;18.88;;;6.00;99.90;;;;;;5002315;28;20030;-59
2023/02/14 09:17:38;;;;;;;28.25;18.13;;;6.10;99.90;;;;;;5001022;28;20069;-59
2023/02/14 09:20:06;;;;;;;26.20;16.65;;;6.20;99.90;;;;;;5000880;28;20026;-59
2023/02/14 09:22:32;;;;;;;28.27;18.88;;;6.20;99.90;;;;;;5003212;28;20058;-59
2023/02/14 09:24:59;;;;;;;30.13;17.73;;;6.30;99.90;;;;;;5001788;28;20512;-60
2023/02/14 09:27:25;;;;;;;27.40;17.38;;;6.40;99.90;;;;;;5001808;28;20121;-61
2023/02/14 09:29:50;;;;;;;26.95;16.05;;;6.40;99.90;;;;;;4999631;28;20517;-59
2023/02/14 09:32:16;;;;;;;29.67;17.00;;;6.50;99.90;;;;;;5001014;28;20026;-59
2023/02/14 09:34:42;;;;;;;27.15;16.17;;;6.60;99.90;;;;;;4999703;28;20018;-59
2023/02/14 09:37:10;;;;;;;28.65;16.70;;;6.60;99.90;;;;;;5001920;28;20108;-60
2023/02/14 09:39:36;;;;;;;28.70;16.73;;;6.60;99.90;;;;;;4999027;28;20026;-59
2023/02/14 09:42:09;;;;;;;26.48;15.05;;;6.70;99.90;;;;;;5001062;28;20477;-58
2023/02/14 09:44:43;;;;;;;24.83;17.13;;;6.80;99.90;;;;;;5001118;28;20029;-62
2023/02/14 09:47:16;;;;;;;25.40;15.95;;;6.80;99.90;;;;;;4999596;28;20108;-61
2023/02/14 09:49:42;;;;;;;22.38;15.18;;;6.90;99.90;;;;;;5001990;28;20026;-60
2023/02/14 09:52:13;;;;;;;21.38;14.57;;;7.00;99.90;;;;;;5000897;28;20034;-61
2023/02/14 09:54:42;;;;;;;22.65;15.10;;;7.10;99.90;;;;;;5001375;28;20026;-58
2023/02/14 09:57:21;;;;;;;22.67;15.15;;;7.20;99.90;;;;;;5000235;28;20080;-61
2023/02/14 10:00:06;;;;;;;22.25;13.95;;;7.30;99.90;;;;;;5001895;28;20110;-59
2023/02/14 10:02:38;;;;;;;24.15;15.32;;;7.30;99.90;;;;;;5002130;28;20319;-57
2023/02/14 10:05:17;;;;;;;24.33;15.55;;;7.40;99.90;;;;;;5001285;28;20493;-59
2023/02/14 10:08:02;;;;;;;23.77;14.90;;;7.50;99.90;;;;;;5001925;28;20100;-59
2023/02/14 10:10:32;;;;;;;23.02;15.07;;;7.50;99.90;;;;;;5001099;28;20515;-58
2023/02/14 10:13:15;;;;;;;20.92;15.00;;;7.60;99.90;;;;;;5001029;28;20035;-61
2023/02/14 10:15:45;;;;;;;21.85;13.30;;;7.70;99.90;;;;;;5001851;28;20393;-60
2023/02/14 10:18:27;;;;;;;21.00;14.30;;;7.70;99.90;;;;;;4999056;28;20022;-61
2023/02/14 10:20:56;;;;;;;19.77;13.63;;;7.80;99.90;;;;;;5000688;28;20105;-57
2023/02/14 10:23:41;;;;;;;20.92;13.65;;;7.90;99.90;;;;;;4999362;28;20269;-58
2023/02/14 10:26:25;;;;;;;23.10;14.75;;;7.90;99.90;;;;;;5000435;28;20253;-59
2023/02/14 10:28:53;;;;;;;23.77;14.13;;;7.90;99.90;;;;;;5000481;28;20369;-59
2023/02/14 10:31:25;;;;;;;22.00;14.82;;;8.00;99.90;;;;;;4999829;28;20029;-58
2023/02/14 10:33:56;;;;;;;24.50;15.23;;;8.00;99.90;;;;;;5006447;28;20061;-60
2023/02/14 10:36:59;;;;;;;22.08;14.90;;;8.10;99.90;;;;;;5005739;28;20343;-59
2023/02/14 10:39:55;;;;;;;22.85;15.00;;;8.10;99.90;;;;;;5001113;28;20026;-59
2023/02/14 10:43:00;;;;;;;22.80;14.27;;;8.10;99.90;;;;;;5000741;28;20022;-59
2023/02/14 10:45:44;;;;;;;22.17;15.27;;;8.20;99.90;;;;;;4999493;28;20110;-62
2023/02/14 10:48:33;;;;;;;21.30;14.25;;;8.20;99.90;;;;;;4999837;28;20114;-61
2023/02/14 10:51:27;;;;;;;22.35;14.25;;;8.30;99.90;;;;;;4999949;28;20311;-57
2023/02/14 10:54:11;;;;;;;21.05;14.05;;;8.30;99.90;;;;;;4998918;28;20033;-57
2023/02/14 10:56:42;;;;;;;20.30;13.73;;;8.30;99.90;;;;;;4999605;28;20392;-57
2023/02/14 10:59:33;;;;;;;23.48;14.48;;;8.40;99.90;;;;;;4999368;28;20249;-58
2023/02/14 11:02:00;;;;;;;22.83;14.50;;;8.40;99.90;;;;;;4999484;28;20025;-57
2023/02/14 11:04:26;;;;;;;21.17;14.60;;;8.50;99.90;;;;;;4999462;28;20532;-60
2023/02/14 11:06:52;;;;;;;22.30;14.18;;;8.60;99.90;;;;;;5001344;28;20083;-60
2023/02/14 11:09:18;;;;;;;20.75;13.90;;;8.70;99.90;;;;;;4999293;28;20022;-58
2023/02/14 11:11:50;;;;;;;22.02;14.55;;;8.70;99.90;;;;;;5000826;28;20034;-55
2023/02/14 11:14:31;;;;;;;20.63;13.55;;;8.70;99.90;;;;;;4998354;28;20104;-58
2023/02/14 11:16:58;;;;;;;20.48;13.27;;;8.70;99.90;;;;;;4999018;28;20018;-58
2023/02/14 11:19:37;;;;;;;20.08;13.80;;;8.60;99.90;;;;;;4997362;28;20014;-56
2023/02/14 11:22:03;;;;;;;18.80;13.68;;;8.70;99.90;;;;;;5000280;28;20029;-55
2023/02/14 11:24:36;;;;;;;21.85;14.30;;;8.70;99.90;;;;;;4999025;28;20022;-59
2023/02/14 11:27:06;;;;;;;24.10;14.40;;;8.80;99.90;;;;;;4999599;28;20507;-59
2023/02/14 11:29:37;;;;;;;19.40;13.43;;;8.70;99.90;;;;;;4998927;28;20039;-60
2023/02/14 11:32:08;;;;;;;22.13;13.98;;;8.80;99.90;;;;;;4998933;28;20484;-59
2023/02/14 11:34:53;;;;;;;18.45;13.52;;;8.80;99.90;;;;;;5000158;28;20039;-58
2023/02/14 11:37:24;;;;;;;21.15;14.35;;;8.70;99.90;;;;;;4999356;28;20021;-59
2023/02/14 11:39:51;;;;;;;21.13;14.30;;;8.80;99.90;;;;;;4999126;28;20203;-59
2023/02/14 11:42:40;;;;;;;22.05;14.02;;;8.80;99.90;;;;;;4999961;28;20026;-58
2023/02/14 11:45:24;;;;;;;21.40;15.10;;;8.80;99.90;;;;;;4999238;28;20400;-59
2023/02/14 11:48:05;;;;;;;20.92;14.43;;;8.80;99.90;;;;;;5001112;28;20018;-60
2023/02/14 11:50:31;;;;;;;23.48;14.63;;;8.80;99.90;;;;;;5002997;28;20433;-59
2023/02/14 11:52:58;;;;;;;22.45;14.52;;;8.80;99.90;;;;;;5003348;28;20026;-60
2023/02/14 11:55:31;;;;;;;21.38;14.80;;;8.80;99.90;;;;;;5003111;28;20076;-61
2023/02/14 11:57:58;;;;;;;19.70;13.27;;;8.90;99.90;;;;;;5003950;28;20030;-58
2023/02/14 12:00:25;;;;;;;21.88;14.65;;;8.90;99.90;;;;;;5003865;28;20531;-61
2023/02/14 12:02:52;;;;;;;19.40;13.45;;;8.90;99.90;;;;;;5003650;28;20030;-60
2023/02/14 12:05:32;;;;;;;23.67;14.30;;;8.90;99.90;;;;;;5003953;28;20094;-60
2023/02/14 12:08:01;;;;;;;20.38;13.63;;;8.90;99.90;;;;;;5002804;28;20030;-63
2023/02/14 12:10:34;;;;;;;20.33;13.10;;;8.90;99.90;;;;;;5001510;28;20026;-60
2023/02/14 12:13:09;;;;;;;25.85;15.05;;;9.00;99.90;;;;;;5002959;28;20034;-62
2023/02/14 12:15:48;;;;;;;21.67;13.65;;;9.00;99.90;;;;;;5002743;28;20069;-62
2023/02/14 12:18:41;;;;;;;21.73;13.30;;;9.00;99.90;;;;;;5001306;28;20052;-62
2023/02/14 12:21:40;;;;;;;22.65;15.02;;;9.00;99.90;;;;;;5002271;28;20404;-59
2023/02/14 12:24:18;;;;;;;23.17;14.05;;;9.00;99.90;;;;;;5002945;28;20432;-59
2023/02/14 12:26:56;;;;;;;19.52;13.63;;;9.00;99.90;;;;;;5003600;28;20032;-58
2023/02/14 12:29:35;;;;;;;22.50;13.57;;;9.00;99.90;;;;;;5002593;28;20028;-60
2023/02/14 12:32:15;;;;;;;21.40;14.25;;;9.10;99.90;;;;;;5002915;28;20117;-60
2023/02/14 12:34:41;;;;;;;22.98;13.45;;;9.10;99.90;;;;;;5001490;28;20095;-57
2023/02/14 12:37:16;;;;;;;19.98;13.75;;;9.10;99.90;;;;;;5002718;28;20375;-59
2023/02/14 12:39:45;;;;;;;21.80;14.10;;;9.10;99.90;;;;;;5002931;28;20056;-60
2023/02/14 12:42:44;;;;;;;20.05;13.50;;;9.20;99.90;;;;;;5003473;28;20029;-60
2023/02/14 12:45:19;;;;;;;22.65;13.60;;;9.20;99.90;;;;;;5001582;28;20494;-63
2023/02/14 12:47:47;;;;;;;19.58;12.57;;;9.20;99.90;;;;;;5003151;28;20026;-59
2023/02/14 12:50:19;;;;;;;20.80;14.27;;;9.20;99.90;;;;;;5002981;28;20029;-62
2023/02/14 12:53:12;;;;;;;20.27;13.80;;;9.30;99.90;;;;;;5003354;28;20117;-60
2023/02/14 12:55:38;;;;;;;21.30;13.00;;;9.30;99.90;;;;;;5002742;28;20088;-61
2023/02/14 12:58:23;;;;;;;23.08;15.38;;;9.30;99.90;;;;;;5002987;28;20493;-62
2023/02/14 13:00:55;;;;;;;21.02;14.52;;;9.30;99.90;;;;;;5002681;28;20021;-60
2023/02/14 13:03:43;;;;;;;21.27;14.10;;;9.30;99.90;;;;;;5002225;28;20448;-62
2023/02/14 13:06:37;;;;;;;20.42;14.35;;;9.30;99.90;;;;;;5001509;28;20114;-60
2023/02/14 13:09:17;;;;;;;20.65;13.85;;;9.30;99.90;;;;;;5000990;28;20030;-62
2023/02/14 13:11:43;;;;;;;22.83;14.18;;;9.30;99.90;;;;;;5001676;28;20033;-62
2023/02/14 13:14:30;;;;;;;22.63;14.18;;;9.40;99.90;;;;;;4998982;28;20330;-61